KFUL

Fullerton Municipal Airport

Fullerton, California, USA
METAR KFUL 170753Z AUTO 00000KT 7SM CLR 11/09 A2978 RMK AO2 SLP084 T01110089 402000094
Observed Flight Rules
Dec-17 @ 07:53 UTC (20 minutes ago) Visual Flight Rules
Wind Visibility Clouds
Calm 7 miles
  • Clear skies
Temperatures Readings
Current 11°C / 52°F
Dewpoint 9°C / 48°F
Humidity 88%
Altimeter 29.78" Hg
Pressure 1008.4 hPa
Elevation 35
METAR KFUL 170753Z AUTO 00000KT 7SM CLR 11/09 A2978 RMK AO2 SLP084 T01110089 402000094
Observed Flight Rules
Dec-17 @ 07:53 UTC
(20 minutes ago)
VFR
Wind Visibility
Calm 7 miles
Clouds
  • Clear skies
Temperature Dewpoint
11°C / 52°F 9°C / 48°F
Humidity Altimeter Pressure
88% 29.78" Hg 1008.4 hPa